createdAt,value
2016-06-05T00:00:55.261Z,1009.12
2016-06-05T00:01:55.248Z,1009.12
2016-06-05T00:02:55.235Z,1009.15
2016-06-05T00:03:55.222Z,1009.13
2016-06-05T00:04:55.225Z,1009.16
2016-06-05T00:05:55.212Z,1009.18
2016-06-05T00:06:55.199Z,1009.15
2016-06-05T00:07:55.185Z,1009.13
2016-06-05T00:08:55.174Z,1009.14
2016-06-05T00:09:55.160Z,1009.16
2016-06-05T00:10:55.147Z,1009.14
2016-06-05T00:11:55.135Z,1009.14
2016-06-05T00:12:55.122Z,1009.12
2016-06-05T00:13:55.108Z,1009.11
2016-06-05T00:14:55.095Z,1009.1
2016-06-05T00:15:55.082Z,1009.08
2016-06-05T00:16:55.070Z,1009.12
2016-06-05T00:17:55.057Z,1009.09
2016-06-05T00:18:55.044Z,1009.11
2016-06-05T00:19:55.031Z,1009.11
2016-06-05T00:20:55.018Z,1009.13
2016-06-05T00:21:55.021Z,1009.13
2016-06-05T00:22:54.992Z,1009.14
2016-06-05T00:23:54.995Z,1009.16
2016-06-05T00:24:54.967Z,1009.16
2016-06-05T00:25:54.954Z,1009.17
2016-06-05T00:26:54.956Z,1009.13
2016-06-05T00:27:54.943Z,1009.17
2016-06-05T00:28:54.930Z,1009.12
2016-06-05T00:29:54.917Z,1009.15
2016-06-05T00:30:54.904Z,1009.12
2016-06-05T00:31:54.891Z,1009.12
2016-06-05T00:32:54.878Z,1009.19
2016-06-05T00:33:54.866Z,1009.13
2016-06-05T00:34:54.852Z,1009.13
2016-06-05T00:35:54.839Z,1009.15
2016-06-05T00:36:54.827Z,1009.11
2016-06-05T00:37:54.814Z,1009.14
2016-06-05T00:38:54.800Z,1009.16
2016-06-05T00:39:54.788Z,1009.14
2016-06-05T00:40:54.775Z,1009.14
2016-06-05T00:41:54.763Z,1009.14
2016-06-05T00:42:55.015Z,1009.17
2016-06-05T00:43:54.751Z,1009.17
2016-06-05T00:44:54.724Z,1009.21
2016-06-05T00:45:54.726Z,1009.22
2016-06-05T00:46:54.712Z,1009.2
2016-06-05T00:47:54.699Z,1009.18
2016-06-05T00:48:54.687Z,1009.15
2016-06-05T00:49:54.674Z,1009.15
2016-06-05T00:50:54.662Z,1009.17
2016-06-05T00:51:54.648Z,1009.18
2016-06-05T00:52:54.635Z,1009.16
2016-06-05T00:53:54.623Z,1009.17
2016-06-05T00:54:54.609Z,1009.16
2016-06-05T00:55:54.612Z,1009.15
2016-06-05T00:56:54.584Z,1009.14
2016-06-05T00:57:54.571Z,1009.1
2016-06-05T00:58:54.558Z,1009.14
2016-06-05T00:59:54.545Z,1009.16
2016-06-05T01:00:54.532Z,1009.17
2016-06-05T01:01:54.519Z,1009.13
2016-06-05T01:02:54.505Z,1009.2
2016-06-05T01:03:54.493Z,1009.2
2016-06-05T01:04:54.480Z,1009.18
2016-06-05T01:05:54.467Z,1009.18
2016-06-05T01:06:54.455Z,1009.16
2016-06-05T01:07:54.441Z,1009.19
2016-06-05T01:08:54.428Z,1009.16
2016-06-05T01:09:54.416Z,1009.23
2016-06-05T01:10:54.403Z,1009.2
2016-06-05T01:11:54.405Z,1009.17
2016-06-05T01:12:54.424Z,1009.18
2016-06-05T01:13:54.363Z,1009.19
2016-06-05T01:14:54.366Z,1009.18
2016-06-05T01:15:54.354Z,1009.28
2016-06-05T01:16:54.340Z,1009.2
2016-06-05T01:17:54.327Z,1009.22
2016-06-05T01:18:54.315Z,1009.25
2016-06-05T01:19:54.302Z,1009.25
2016-06-05T01:20:54.289Z,1009.2
2016-06-05T01:21:54.276Z,1009.25
2016-06-05T01:22:54.263Z,1009.29
2016-06-05T01:23:54.250Z,1009.25
2016-06-05T01:24:54.237Z,1009.26
2016-06-05T01:25:54.224Z,1009.29
2016-06-05T01:26:54.211Z,1009.27
2016-06-05T01:27:54.198Z,1009.28
2016-06-05T01:28:54.185Z,1009.28
2016-06-05T01:29:54.172Z,1009.3
2016-06-05T01:30:54.160Z,1009.29
2016-06-05T01:31:54.147Z,1009.31
2016-06-05T01:32:54.133Z,1009.3
2016-06-05T01:33:54.136Z,1009.31
2016-06-05T01:34:54.108Z,1009.34
2016-06-05T01:35:54.095Z,1009.32
2016-06-05T01:36:54.082Z,1009.32
2016-06-05T01:37:54.069Z,1009.31
2016-06-05T01:38:54.071Z,1009.33
2016-06-05T01:39:54.044Z,1009.32
2016-06-05T01:40:54.046Z,1009.34
2016-06-05T01:41:54.017Z,1009.34
2016-06-05T01:42:54.020Z,1009.31
2016-06-05T01:43:53.992Z,1009.31
2016-06-05T01:44:53.978Z,1009.36
2016-06-05T01:45:53.980Z,1009.33
2016-06-05T01:46:53.968Z,1009.32
2016-06-05T01:47:53.940Z,1009.35
2016-06-05T01:48:53.942Z,1009.37
2016-06-05T01:49:53.930Z,1009.32
2016-06-05T01:50:53.916Z,1009.35
2016-06-05T01:51:53.904Z,1009.39
2016-06-05T01:52:53.890Z,1009.37
2016-06-05T01:53:53.877Z,1009.33
2016-06-05T01:54:53.865Z,1009.39
2016-06-05T01:55:53.852Z,1009.35
2016-06-05T01:56:53.839Z,1009.37
2016-06-05T01:57:53.825Z,1009.34
2016-06-05T01:58:53.812Z,1009.37
2016-06-05T01:59:53.801Z,1009.33
2016-06-05T02:00:53.787Z,1009.34
2016-06-05T02:01:53.774Z,1009.33
2016-06-05T02:02:53.762Z,1009.36
2016-06-05T02:03:53.764Z,1009.36
2016-06-05T02:04:53.751Z,1009.38
2016-06-05T02:05:53.738Z,1009.36
2016-06-05T02:06:53.709Z,1009.41
2016-06-05T02:07:53.697Z,1009.38
2016-06-05T02:08:53.683Z,1009.37
2016-06-05T02:09:53.686Z,1009.35
2016-06-05T02:10:53.673Z,1009.37
2016-06-05T02:11:53.661Z,1009.36
2016-06-05T02:12:53.647Z,1009.37
2016-06-05T02:13:53.619Z,1009.36
2016-06-05T02:14:53.621Z,1009.37
2016-06-05T02:15:53.608Z,1009.39
2016-06-05T02:16:53.611Z,1009.41
2016-06-05T02:17:53.582Z,1009.37
2016-06-05T02:18:53.569Z,1009.41
2016-06-05T02:19:53.557Z,1009.46
2016-06-05T02:20:53.544Z,1009.41
2016-06-05T02:21:53.531Z,1009.4
2016-06-05T02:22:53.518Z,1009.4
2016-06-05T02:23:53.504Z,1009.44
2016-06-05T02:24:53.492Z,1009.4
2016-06-05T02:25:53.480Z,1009.43
2016-06-05T02:26:53.466Z,1009.42
2016-06-05T02:27:53.453Z,1009.4
2016-06-05T02:28:53.456Z,1009.4
2016-06-05T02:29:53.428Z,1009.41
2016-06-05T02:30:53.415Z,1009.44
2016-06-05T02:31:53.401Z,1009.38
2016-06-05T02:32:53.389Z,1009.36
2016-06-05T02:33:53.373Z,1009.4
2016-06-05T02:34:53.360Z,1009.37
2016-06-05T02:35:53.347Z,1009.37
2016-06-05T02:36:53.350Z,1009.36
2016-06-05T02:37:53.322Z,1009.38
2016-06-05T02:38:53.325Z,1009.4
2016-06-05T02:39:53.295Z,1009.41
2016-06-05T02:40:53.297Z,1009.38
2016-06-05T02:41:53.286Z,1009.39
2016-06-05T02:42:53.272Z,1009.42
2016-06-05T02:43:53.258Z,1009.37
2016-06-05T02:44:53.247Z,1009.4
2016-06-05T02:45:53.233Z,1009.37
2016-06-05T02:46:53.221Z,1009.44
2016-06-05T02:47:53.208Z,1009.43
2016-06-05T02:48:53.195Z,1009.39
2016-06-05T02:49:53.182Z,1009.45
2016-06-05T02:50:53.169Z,1009.47
2016-06-05T02:51:53.172Z,1009.45
2016-06-05T02:52:53.144Z,1009.5
2016-06-05T02:53:53.130Z,1009.49
2016-06-05T02:54:53.132Z,1009.47
2016-06-05T02:55:53.105Z,1009.48
2016-06-05T02:56:53.091Z,1009.49
2016-06-05T02:57:53.125Z,1009.45
2016-06-05T02:58:53.066Z,1009.47
2016-06-05T02:59:53.068Z,1009.46
2016-06-05T03:00:53.039Z,1009.52
2016-06-05T03:01:53.026Z,1009.46
2016-06-05T03:02:53.014Z,1009.49
2016-06-05T03:03:53.001Z,1009.49
2016-06-05T03:04:52.987Z,1009.5
2016-06-05T03:05:53.084Z,1009.46
2016-06-05T03:06:52.977Z,1009.47
2016-06-05T03:07:52.948Z,1009.51
2016-06-05T03:08:52.951Z,1009.55
2016-06-05T03:09:52.938Z,1009.5
2016-06-05T03:10:52.926Z,1009.53
2016-06-05T03:11:52.914Z,1009.51
2016-06-05T03:12:53.587Z,1009.56
2016-06-05T03:13:53.153Z,1009.57
2016-06-05T03:14:52.874Z,1009.58
2016-06-05T03:15:52.861Z,1009.57
2016-06-05T03:16:52.848Z,1009.59
2016-06-05T03:17:52.835Z,1009.61
2016-06-05T03:18:52.822Z,1009.57
2016-06-05T03:19:52.809Z,1009.55
2016-06-05T03:20:52.796Z,1009.51
2016-06-05T03:21:53.143Z,1009.53
2016-06-05T03:22:52.770Z,1009.56
2016-06-05T03:23:52.757Z,1009.59
2016-06-05T03:24:52.744Z,1009.56
2016-06-05T03:25:52.732Z,1009.55
2016-06-05T03:26:52.719Z,1009.55
2016-06-05T03:27:52.706Z,1009.58
2016-06-05T03:28:52.787Z,1009.58
2016-06-05T03:29:53.133Z,1009.58
2016-06-05T03:30:52.682Z,1009.57
2016-06-05T03:31:52.654Z,1009.58
2016-06-05T03:32:52.641Z,1009.6
2016-06-05T03:33:52.628Z,1009.58
2016-06-05T03:34:52.631Z,1009.6
2016-06-05T03:35:52.603Z,1009.56
2016-06-05T03:36:52.606Z,1009.66
2016-06-05T03:37:53.139Z,1009.61
2016-06-05T03:38:52.579Z,1009.63
2016-06-05T03:39:52.567Z,1009.67
2016-06-05T03:40:52.553Z,1009.71
2016-06-05T03:41:52.540Z,1009.68
2016-06-05T03:42:52.746Z,1009.72
2016-06-05T03:43:52.515Z,1009.64
2016-06-05T03:44:52.517Z,1009.65
2016-06-05T03:45:53.144Z,1009.7
2016-06-05T03:46:52.475Z,1009.71
2016-06-05T03:47:52.463Z,1009.65
2016-06-05T03:48:52.450Z,1009.74
2016-06-05T03:49:52.437Z,1009.7
2016-06-05T03:50:52.424Z,1009.71
2016-06-05T03:51:52.411Z,1009.73
2016-06-05T03:52:52.399Z,1009.74
2016-06-05T03:53:52.447Z,1009.75
2016-06-05T03:54:52.372Z,1009.78
2016-06-05T03:55:52.360Z,1009.76
2016-06-05T03:56:52.346Z,1009.74
2016-06-05T03:57:52.583Z,1009.71
2016-06-05T03:58:52.648Z,1009.74
2016-06-05T03:59:52.307Z,1009.77
2016-06-05T04:00:52.295Z,1009.74
2016-06-05T04:01:52.438Z,1009.78
2016-06-05T04:02:52.285Z,1009.77
2016-06-05T04:03:52.271Z,1009.8
2016-06-05T04:04:52.259Z,1009.8
2016-06-05T04:05:52.246Z,1009.85
2016-06-05T04:06:52.232Z,1009.78
2016-06-05T04:07:52.220Z,1009.86
2016-06-05T04:08:52.206Z,1009.83
2016-06-05T04:09:52.444Z,1009.85
2016-06-05T04:10:52.181Z,1009.86
2016-06-05T04:11:52.168Z,1009.83
2016-06-05T04:12:52.155Z,1009.84
2016-06-05T04:13:52.205Z,1009.87
2016-06-05T04:14:52.129Z,1009.88
2016-06-05T04:15:52.117Z,1009.86
2016-06-05T04:16:52.103Z,1009.88
2016-06-05T04:17:52.457Z,1009.88
2016-06-05T04:18:52.112Z,1009.91
2016-06-05T04:19:52.126Z,1009.92
2016-06-05T04:20:52.142Z,1009.93
2016-06-05T04:21:52.156Z,1009.92
2016-06-05T04:22:52.166Z,1009.92
2016-06-05T04:23:52.163Z,1009.91
2016-06-05T04:24:52.160Z,1009.93
2016-06-05T04:25:52.658Z,1009.95
2016-06-05T04:26:52.155Z,1009.94
2016-06-05T04:27:52.150Z,1009.95
2016-06-05T04:28:52.142Z,1009.96
2016-06-05T04:29:52.148Z,1009.96
2016-06-05T04:30:52.123Z,1009.95
2016-06-05T04:31:52.114Z,1009.98
2016-06-05T04:32:52.120Z,1010.01
2016-06-05T04:33:52.107Z,1009.99
2016-06-05T04:34:52.097Z,1009.99
2016-06-05T04:35:52.084Z,1010.02
2016-06-05T04:36:52.072Z,1010.03
2016-06-05T04:37:52.060Z,1010.05
2016-06-05T04:38:52.048Z,1010.08
2016-06-05T04:39:52.034Z,1010.06
2016-06-05T04:40:52.023Z,1010.1
2016-06-05T04:41:52.010Z,1010.09
2016-06-05T04:42:51.998Z,1010.08
2016-06-05T04:43:52.658Z,1010.13
2016-06-05T04:44:51.973Z,1010.13
2016-06-05T04:45:51.960Z,1010.14
2016-06-05T04:46:51.948Z,1010.13
2016-06-05T04:47:51.934Z,1010.16
2016-06-05T04:48:51.922Z,1010.17
2016-06-05T04:49:51.909Z,1010.15
2016-06-05T04:50:51.896Z,1010.15
2016-06-05T04:51:51.883Z,1010.13
2016-06-05T04:52:51.870Z,1010.15
2016-06-05T04:53:51.858Z,1010.16
2016-06-05T04:54:51.844Z,1010.15
2016-06-05T04:55:51.831Z,1010.16
2016-06-05T04:56:51.818Z,1010.14
2016-06-05T04:57:52.494Z,1010.15
2016-06-05T04:58:51.793Z,1010.18
2016-06-05T04:59:51.780Z,1010.2
2016-06-05T05:00:51.782Z,1010.16
2016-06-05T05:01:51.754Z,1010.17
2016-06-05T05:02:51.757Z,1010.16
2016-06-05T05:03:51.727Z,1010.18
2016-06-05T05:04:51.730Z,1010.17
2016-06-05T05:05:51.718Z,1010.2
2016-06-05T05:06:51.705Z,1010.17
2016-06-05T05:07:51.692Z,1010.19
2016-06-05T05:08:51.679Z,1010.16
2016-06-05T05:09:51.666Z,1010.22
2016-06-05T05:10:51.654Z,1010.22
2016-06-05T05:11:51.640Z,1010.25
2016-06-05T05:12:51.626Z,1010.23
2016-06-05T05:13:52.146Z,1010.27
2016-06-05T05:14:51.601Z,1010.26
2016-06-05T05:15:51.589Z,1010.22
2016-06-05T05:16:51.575Z,1010.21
2016-06-05T05:17:51.562Z,1010.21
2016-06-05T05:18:51.550Z,1010.21
2016-06-05T05:19:51.536Z,1010.23
2016-06-05T05:20:51.523Z,1010.22
2016-06-05T05:21:51.511Z,1010.26
2016-06-05T05:22:51.498Z,1010.25
2016-06-05T05:23:51.486Z,1010.27
2016-06-05T05:24:51.472Z,1010.28
2016-06-05T05:25:51.459Z,1010.28
2016-06-05T05:26:51.447Z,1010.25
2016-06-05T05:27:51.449Z,1010.27
2016-06-05T05:28:51.420Z,1010.29
2016-06-05T05:29:51.422Z,1010.28
2016-06-05T05:30:51.410Z,1010.3
2016-06-05T05:31:51.382Z,1010.34
2016-06-05T05:32:51.369Z,1010.31
2016-06-05T05:33:51.371Z,1010.31
2016-06-05T05:34:51.358Z,1010.32
2016-06-05T05:35:51.345Z,1010.35
2016-06-05T05:36:51.332Z,1010.33
2016-06-05T05:37:51.335Z,1010.3
2016-06-05T05:38:51.307Z,1010.33
2016-06-05T05:39:51.293Z,1010.33
2016-06-05T05:40:51.281Z,1010.36
2016-06-05T05:41:51.268Z,1010.34
2016-06-05T05:42:51.255Z,1010.35
2016-06-05T05:43:51.820Z,1010.36
2016-06-05T05:44:51.228Z,1010.36
2016-06-05T05:45:51.216Z,1010.37
2016-06-05T05:46:51.203Z,1010.4
2016-06-05T05:47:51.190Z,1010.41
2016-06-05T05:48:51.177Z,1010.39
2016-06-05T05:49:51.164Z,1010.37
2016-06-05T05:50:51.151Z,1010.41
2016-06-05T05:51:51.139Z,1010.4
2016-06-05T05:52:51.125Z,1010.41
2016-06-05T05:53:51.112Z,1010.4
2016-06-05T05:54:51.100Z,1010.45
2016-06-05T05:55:51.086Z,1010.4
2016-06-05T05:56:51.089Z,1010.43
2016-06-05T05:57:51.061Z,1010.44
2016-06-05T05:58:51.048Z,1010.44
2016-06-05T05:59:51.050Z,1010.47
2016-06-05T06:00:51.038Z,1010.49
2016-06-05T06:01:51.025Z,1010.48
2016-06-05T06:02:51.011Z,1010.48
2016-06-05T06:03:50.999Z,1010.49
2016-06-05T06:04:50.986Z,1010.51
2016-06-05T06:05:50.973Z,1010.53
2016-06-05T06:06:50.960Z,1010.55
2016-06-05T06:07:50.946Z,1010.58
2016-06-05T06:08:50.934Z,1010.58
2016-06-05T06:09:50.921Z,1010.54
2016-06-05T06:10:50.907Z,1010.59
2016-06-05T06:11:50.895Z,1010.55
2016-06-05T06:12:50.882Z,1010.57
2016-06-05T06:13:50.870Z,1010.61
2016-06-05T06:14:50.856Z,1010.61
2016-06-05T06:15:50.843Z,1010.66
2016-06-05T06:16:50.831Z,1010.59
2016-06-05T06:17:50.817Z,1010.62
2016-06-05T06:18:50.820Z,1010.57
2016-06-05T06:19:50.792Z,1010.63
2016-06-05T06:20:50.779Z,1010.59
2016-06-05T06:21:50.766Z,1010.64
2016-06-05T06:22:50.753Z,1010.64
2016-06-05T06:23:50.755Z,1010.61
2016-06-05T06:24:50.728Z,1010.69
2016-06-05T06:25:50.730Z,1010.66
2016-06-05T06:26:50.700Z,1010.71
2016-06-05T06:27:50.688Z,1010.69
2016-06-05T06:28:50.691Z,1010.71
2016-06-05T06:29:50.677Z,1010.76
2016-06-05T06:30:50.665Z,1010.73
2016-06-05T06:31:50.652Z,1010.78
2016-06-05T06:32:50.639Z,1010.77
2016-06-05T06:33:50.626Z,1010.73
2016-06-05T06:34:50.613Z,1010.77
2016-06-05T06:35:50.600Z,1010.74
2016-06-05T06:36:50.587Z,1010.84
2016-06-05T06:37:50.574Z,1010.75
2016-06-05T06:38:50.562Z,1010.76
2016-06-05T06:39:50.549Z,1010.75
2016-06-05T06:40:50.535Z,1010.71
2016-06-05T06:41:50.523Z,1010.72
2016-06-05T06:42:50.916Z,1010.7
2016-06-05T06:43:50.496Z,1010.67
2016-06-05T06:44:50.484Z,1010.63
2016-06-05T06:45:50.471Z,1010.7
2016-06-05T06:46:50.458Z,1010.76
2016-06-05T06:47:50.446Z,1010.72
2016-06-05T06:48:50.448Z,1010.73
2016-06-05T06:49:50.419Z,1010.76
2016-06-05T06:50:50.422Z,1010.79
2016-06-05T06:51:50.393Z,1010.82
2016-06-05T06:52:50.381Z,1010.83
2016-06-05T06:53:50.367Z,1010.8
2016-06-05T06:54:50.370Z,1010.82
2016-06-05T06:55:50.341Z,1010.86
2016-06-05T06:56:50.344Z,1010.84
2016-06-05T06:57:50.316Z,1010.86
2016-06-05T06:58:50.303Z,1010.88
2016-06-05T06:59:50.305Z,1010.87
2016-06-05T07:00:50.292Z,1010.92
2016-06-05T07:01:50.280Z,1010.87
2016-06-05T07:02:50.266Z,1010.91
2016-06-05T07:03:50.254Z,1010.9
2016-06-05T07:04:50.241Z,1010.88
2016-06-05T07:05:50.228Z,1010.89
2016-06-05T07:06:50.216Z,1010.92
2016-06-05T07:07:50.202Z,1010.87
2016-06-05T07:08:50.189Z,1010.89
2016-06-05T07:09:50.177Z,1010.9
2016-06-05T07:10:50.163Z,1010.94
2016-06-05T07:11:50.150Z,1010.91
2016-06-05T07:12:50.137Z,1010.98
2016-06-05T07:13:50.125Z,1010.96
2016-06-05T07:14:50.112Z,1010.97
2016-06-05T07:15:50.099Z,1010.96
2016-06-05T07:16:50.085Z,1010.96
2016-06-05T07:17:50.072Z,1010.95
2016-06-05T07:18:50.076Z,1010.97
2016-06-05T07:19:50.048Z,1011
2016-06-05T07:20:50.050Z,1010.94
2016-06-05T07:21:50.020Z,1011
2016-06-05T07:22:50.008Z,1011.01
2016-06-05T07:23:49.995Z,1010.99
2016-06-05T07:24:49.982Z,1011.01
2016-06-05T07:25:49.984Z,1010.97
2016-06-05T07:26:49.972Z,1010.98
2016-06-05T07:27:49.959Z,1010.97
2016-06-05T07:28:49.947Z,1010.97
2016-06-05T07:29:49.933Z,1011.02
2016-06-05T07:30:49.920Z,1010.97
2016-06-05T07:31:49.908Z,1010.98
2016-06-05T07:32:49.894Z,1010.97
2016-06-05T07:33:49.881Z,1010.99
2016-06-05T07:34:49.869Z,1011
2016-06-05T07:35:49.855Z,1010.96
2016-06-05T07:36:49.843Z,1010.92
2016-06-05T07:37:49.829Z,1011
2016-06-05T07:38:49.817Z,1011
2016-06-05T07:39:49.804Z,1010.97
2016-06-05T07:40:49.791Z,1010.99
2016-06-05T07:41:49.777Z,1010.97
2016-06-05T07:42:49.780Z,1010.96
2016-06-05T07:43:49.752Z,1010.96
2016-06-05T07:44:49.739Z,1010.94
2016-06-05T07:45:49.726Z,1010.98
2016-06-05T07:46:49.729Z,1011.01
2016-06-05T07:47:49.716Z,1011
2016-06-05T07:48:49.703Z,1010.94
2016-06-05T07:49:49.690Z,1010.98
2016-06-05T07:50:49.677Z,1011
2016-06-05T07:51:49.664Z,1010.98
2016-06-05T07:52:49.651Z,1010.94
2016-06-05T07:53:49.639Z,1010.94
2016-06-05T07:54:49.625Z,1011
2016-06-05T07:55:49.612Z,1010.95
2016-06-05T07:56:49.600Z,1010.95
2016-06-05T07:57:49.586Z,1010.97
2016-06-05T07:58:49.574Z,1010.98
2016-06-05T07:59:49.561Z,1010.96
2016-06-05T08:00:49.641Z,1011
2016-06-05T08:01:49.536Z,1010.97
2016-06-05T08:02:49.522Z,1010.96
2016-06-05T08:03:49.524Z,1010.99
2016-06-05T08:04:49.496Z,1011.02
2016-06-05T08:05:49.499Z,1011.05
2016-06-05T08:06:49.470Z,1011.03
2016-06-05T08:07:49.457Z,1011.06
2016-06-05T08:08:49.663Z,1011.06
2016-06-05T08:09:49.432Z,1011.06
2016-06-05T08:10:49.434Z,1011.02
2016-06-05T08:11:49.405Z,1010.97
2016-06-05T08:12:49.596Z,1011.05
2016-06-05T08:13:49.396Z,1011.08
2016-06-05T08:14:49.382Z,1011.04
2016-06-05T08:15:49.368Z,1011.08
2016-06-05T08:16:49.746Z,1011.1
2016-06-05T08:17:49.343Z,1011.06
2016-06-05T08:18:49.331Z,1011.12
2016-06-05T08:19:49.317Z,1011.11
2016-06-05T08:20:49.304Z,1011.11
2016-06-05T08:21:49.292Z,1011.15
2016-06-05T08:22:49.294Z,1011.14
2016-06-05T08:23:49.266Z,1011.11
2016-06-05T08:24:49.659Z,1011.17
2016-06-05T08:25:49.240Z,1011.11
2016-06-05T08:26:49.242Z,1011.13
2016-06-05T08:27:49.230Z,1011.11
2016-06-05T08:28:49.201Z,1011.12
2016-06-05T08:29:49.189Z,1011.14
2016-06-05T08:30:49.175Z,1011.14
2016-06-05T08:31:49.162Z,1011.15
2016-06-05T08:32:49.712Z,1011.15
2016-06-05T08:33:49.137Z,1011.16
2016-06-05T08:34:49.139Z,1011.12
2016-06-05T08:35:49.127Z,1011.21
2016-06-05T08:36:49.113Z,1011.17
2016-06-05T08:37:49.116Z,1011.13
2016-06-05T08:38:49.087Z,1011.1
2016-06-05T08:39:49.074Z,1011.15
2016-06-05T08:40:49.718Z,1011.18
2016-06-05T08:41:49.049Z,1011.22
2016-06-05T08:42:49.036Z,1011.19
2016-06-05T08:43:49.038Z,1011.15
2016-06-05T08:44:49.010Z,1011.16
2016-06-05T08:45:49.013Z,1011.19
2016-06-05T08:46:48.984Z,1011.11
2016-06-05T08:47:48.971Z,1011.1
2016-06-05T08:48:48.958Z,1011.15
2016-06-05T08:49:48.960Z,1011.09
2016-06-05T08:50:48.932Z,1011.1
2016-06-05T08:51:48.920Z,1011.17
2016-06-05T08:52:48.922Z,1011.14
2016-06-05T08:53:48.893Z,1011.16
2016-06-05T08:54:48.895Z,1011.14
2016-06-05T08:55:48.883Z,1011.19
2016-06-05T08:56:48.964Z,1011.16
2016-06-05T08:57:48.857Z,1011.21
2016-06-05T08:58:48.844Z,1011.19
2016-06-05T08:59:48.831Z,1011.17
2016-06-05T09:00:48.819Z,1011.25
2016-06-05T09:01:48.806Z,1011.17
2016-06-05T09:02:48.792Z,1011.21
2016-06-05T09:03:48.780Z,1011.19
2016-06-05T09:04:49.720Z,1011.19
2016-06-05T09:05:48.754Z,1011.21
2016-06-05T09:06:48.741Z,1011.21
2016-06-05T09:07:48.728Z,1011.19
2016-06-05T09:08:48.716Z,1011.2
2016-06-05T09:09:48.702Z,1011.21
2016-06-05T09:10:48.705Z,1011.19
2016-06-05T09:11:48.691Z,1011.22
2016-06-05T09:12:49.101Z,1011.25
2016-06-05T09:13:48.666Z,1011.26
2016-06-05T09:14:48.652Z,1011.23
2016-06-05T09:15:48.640Z,1011.29
2016-06-05T09:16:48.627Z,1011.21
2016-06-05T09:17:48.615Z,1011.27
2016-06-05T09:18:48.601Z,1011.26
2016-06-05T09:19:48.588Z,1011.27
2016-06-05T09:20:49.029Z,1011.31
2016-06-05T09:21:48.563Z,1011.32
2016-06-05T09:22:48.549Z,1011.27
2016-06-05T09:23:48.536Z,1011.3
2016-06-05T09:24:48.523Z,1011.32
2016-06-05T09:25:48.527Z,1011.3
2016-06-05T09:26:48.498Z,1011.29
2016-06-05T09:27:48.484Z,1011.33
2016-06-05T09:28:48.487Z,1011.3
2016-06-05T09:29:48.475Z,1011.33
2016-06-05T09:30:48.462Z,1011.28
2016-06-05T09:31:48.448Z,1011.37
2016-06-05T09:32:48.436Z,1011.29
2016-06-05T09:33:48.423Z,1011.3
2016-06-05T09:34:48.411Z,1011.34
2016-06-05T09:35:48.397Z,1011.38
2016-06-05T09:36:48.383Z,1011.3
2016-06-05T09:37:48.371Z,1011.33
2016-06-05T09:38:48.358Z,1011.41
2016-06-05T09:39:48.345Z,1011.39
2016-06-05T09:40:48.332Z,1011.38
2016-06-05T09:41:48.320Z,1011.38
2016-06-05T09:42:48.322Z,1011.36
2016-06-05T09:43:48.293Z,1011.38
2016-06-05T09:44:48.296Z,1011.33
2016-06-05T09:45:48.283Z,1011.37
2016-06-05T09:46:48.271Z,1011.39
2016-06-05T09:47:48.257Z,1011.37
2016-06-05T09:48:48.244Z,1011.37
2016-06-05T09:49:48.232Z,1011.38
2016-06-05T09:50:48.219Z,1011.31
2016-06-05T09:51:48.206Z,1011.36
2016-06-05T09:52:48.193Z,1011.4
2016-06-05T09:53:48.179Z,1011.31
2016-06-05T09:54:48.167Z,1011.37
2016-06-05T09:55:48.170Z,1011.39
2016-06-05T09:56:48.141Z,1011.37
2016-06-05T09:57:48.128Z,1011.42
2016-06-05T09:58:48.131Z,1011.43
2016-06-05T09:59:48.118Z,1011.48
2016-06-05T10:00:48.090Z,1011.47
2016-06-05T10:01:48.108Z,1011.46
2016-06-05T10:02:48.079Z,1011.46
2016-06-05T10:03:48.066Z,1011.45
2016-06-05T10:04:48.053Z,1011.54
2016-06-05T10:05:48.039Z,1011.46
2016-06-05T10:06:48.028Z,1011.49
2016-06-05T10:07:48.014Z,1011.52
2016-06-05T10:08:48.002Z,1011.49
2016-06-05T10:09:47.988Z,1011.48
2016-06-05T10:10:47.975Z,1011.47
2016-06-05T10:11:47.963Z,1011.46
2016-06-05T10:12:48.591Z,1011.51
2016-06-05T10:13:47.952Z,1011.55
2016-06-05T10:14:47.923Z,1011.51
2016-06-05T10:15:47.910Z,1011.49
2016-06-05T10:16:47.913Z,1011.52
2016-06-05T10:17:47.901Z,1011.47
2016-06-05T10:18:47.887Z,1011.58
2016-06-05T10:19:47.874Z,1011.53
2016-06-05T10:20:47.862Z,1011.54
2016-06-05T10:21:47.848Z,1011.53
2016-06-05T10:22:47.835Z,1011.49
2016-06-05T10:23:47.823Z,1011.57
2016-06-05T10:24:47.810Z,1011.52
2016-06-05T10:25:47.798Z,1011.57
2016-06-05T10:26:47.784Z,1011.52
2016-06-05T10:27:47.770Z,1011.5
2016-06-05T10:28:48.321Z,1011.52
2016-06-05T10:29:47.746Z,1011.57
2016-06-05T10:30:47.732Z,1011.52
2016-06-05T10:31:47.734Z,1011.54
2016-06-05T10:32:47.706Z,1011.59
2016-06-05T10:33:47.709Z,1011.57
2016-06-05T10:34:47.697Z,1011.57
2016-06-05T10:35:47.683Z,1011.54
2016-06-05T10:36:47.670Z,1011.58
2016-06-05T10:37:47.658Z,1011.59
2016-06-05T10:38:47.644Z,1011.58
2016-06-05T10:39:47.631Z,1011.52
2016-06-05T10:40:47.619Z,1011.57
2016-06-05T10:41:47.605Z,1011.6
2016-06-05T10:42:47.593Z,1011.55
2016-06-05T10:43:47.580Z,1011.56
2016-06-05T10:44:47.566Z,1011.61
2016-06-05T10:45:47.555Z,1011.62
2016-06-05T10:46:47.541Z,1011.58
2016-06-05T10:47:47.543Z,1011.58
2016-06-05T10:48:47.530Z,1011.56
2016-06-05T10:49:47.502Z,1011.56
2016-06-05T10:50:47.505Z,1011.58
2016-06-05T10:51:47.492Z,1011.57
2016-06-05T10:52:47.479Z,1011.59
2016-06-05T10:53:47.465Z,1011.58
2016-06-05T10:54:47.454Z,1011.61
2016-06-05T10:55:47.440Z,1011.59
2016-06-05T10:56:47.427Z,1011.66
2016-06-05T10:57:47.414Z,1011.55
2016-06-05T10:58:47.979Z,1011.58
2016-06-05T10:59:47.389Z,1011.6
2016-06-05T11:00:47.375Z,1011.58
2016-06-05T11:01:47.362Z,1011.55
2016-06-05T11:02:47.365Z,1011.53
2016-06-05T11:03:47.353Z,1011.54
2016-06-05T11:04:47.340Z,1011.56
2016-06-05T11:05:47.326Z,1011.54
2016-06-05T11:06:47.313Z,1011.56
2016-06-05T11:07:47.347Z,1011.53
2016-06-05T11:08:47.303Z,1011.56
2016-06-05T11:09:47.275Z,1011.55
2016-06-05T11:10:47.262Z,1011.57
2016-06-05T11:11:47.249Z,1011.52
2016-06-05T11:12:47.236Z,1011.49
2016-06-05T11:13:47.489Z,1011.47
2016-06-05T11:14:47.226Z,1011.51
2016-06-05T11:15:47.196Z,1011.51
2016-06-05T11:16:47.184Z,1011.52
2016-06-05T11:17:47.171Z,1011.5
2016-06-05T11:18:47.174Z,1011.5
2016-06-05T11:19:47.161Z,1011.5
2016-06-05T11:20:47.148Z,1011.48
2016-06-05T11:21:47.135Z,1011.5
2016-06-05T11:22:47.121Z,1011.48
2016-06-05T11:23:47.109Z,1011.55
2016-06-05T11:24:47.096Z,1011.49
2016-06-05T11:25:47.099Z,1011.49
2016-06-05T11:26:47.071Z,1011.51
2016-06-05T11:27:47.902Z,1011.47
2016-06-05T11:28:47.295Z,1011.48
2016-06-05T11:29:47.032Z,1011.45
2016-06-05T11:30:47.018Z,1011.46
2016-06-05T11:31:47.021Z,1011.47
2016-06-05T11:32:47.009Z,1011.46
2016-06-05T11:33:46.995Z,1011.44
2016-06-05T11:34:46.983Z,1011.42
2016-06-05T11:35:46.970Z,1011.42
2016-06-05T11:36:46.956Z,1011.44
2016-06-05T11:37:46.944Z,1011.41
2016-06-05T11:38:46.931Z,1011.43
2016-06-05T11:39:46.918Z,1011.39
2016-06-05T11:40:46.905Z,1011.42
2016-06-05T11:41:46.908Z,1011.41
2016-06-05T11:42:48.269Z,1011.43
2016-06-05T11:43:46.882Z,1011.38
2016-06-05T11:44:46.869Z,1011.39
2016-06-05T11:45:46.872Z,1011.39
2016-06-05T11:46:46.843Z,1011.34
2016-06-05T11:47:46.830Z,1011.41
2016-06-05T11:48:46.817Z,1011.36
2016-06-05T11:49:46.804Z,1011.31
2016-06-05T11:50:46.791Z,1011.33
2016-06-05T11:51:46.778Z,1011.38
2016-06-05T11:52:46.765Z,1011.34
2016-06-05T11:53:46.753Z,1011.34
2016-06-05T11:54:46.740Z,1011.36
2016-06-05T11:55:46.726Z,1011.34
2016-06-05T11:56:46.713Z,1011.28
2016-06-05T11:57:46.716Z,1011.29
2016-06-05T11:58:46.703Z,1011.29
2016-06-05T11:59:46.690Z,1011.24
2016-06-05T12:00:46.678Z,1011.26
2016-06-05T12:01:46.664Z,1011.23
2016-06-05T12:02:46.651Z,1011.25
2016-06-05T12:03:46.639Z,1011.23
2016-06-05T12:04:46.625Z,1011.25
2016-06-05T12:05:46.613Z,1011.24
2016-06-05T12:06:46.601Z,1011.24
2016-06-05T12:07:46.586Z,1011.21
2016-06-05T12:08:46.575Z,1011.23